Аэропорт
Иссык-Куль (UCFL)

 UCFL
ЗЦ Центральная Азия
Бишкек (UCFM)
Бишкек (UCFM)
 42.58830, 76.71330  / 5425 ft

 UCFL 300600Z 12003MPS 9999 SCT030CB BKN100 06/M01 Q1034 R07/CLRD95
 TAF UCFL 300146Z 3003/3012 34003G08MPS 9999 SCT030CB BKN100 BECMG 3005/3007 15003G08MPS
показать схемы



2020 © VATRUS division (Privacy Policy)